Time;durP1;ratioP1;P1;durP2;ratioP2;P2;SDS_P1;SDS_P2;PMS_P1;PMS_P2;Temp;Humidity;BMP_temperature;BMP_pressure;BME280_temperature;BME280_humidity;BME280_pressure;Samples;Min_cycle;Max_cycle;Signal;HPM_P1;HPM_P2
2021/09/15 00:01:57;;;;;;;73.53;41.40;;;;;;;;;;4332796;33;20155;-84
2021/09/15 00:04:32;;;;;;;84.15;45.05;;;;;;;;;;4345534;33;20675;-83
2021/09/15 00:06:57;;;;;;;90.22;51.53;;;;;;;;;;4345835;33;20642;-83
2021/09/15 00:09:22;;;;;;;91.15;49.28;;;;;;;;;;4345280;33;20144;-84
2021/09/15 00:11:48;;;;;;;83.20;47.30;;;;;;;;;;4345655;33;20132;-84
2021/09/15 00:14:13;;;;;;;103.20;53.30;;;;;;;;;;4331817;33;20159;-84
2021/09/15 00:16:46;;;;;;;78.30;47.00;;;;;;;;;;4331599;33;20167;-83
2021/09/15 00:19:12;;;;;;;94.43;50.30;;;;;;;;;;4345381;33;20174;-83
2021/09/15 00:21:37;;;;;;;74.70;43.92;;;;;;;;;;4345320;33;20561;-83
2021/09/15 00:24:08;;;;;;;75.37;44.75;;;;;;;;;;4345517;33;20124;-83
2021/09/15 00:26:33;;;;;;;75.62;47.47;;;;;;;;;;4331574;33;20190;-83
2021/09/15 00:28:59;;;;;;;95.20;54.03;;;;;;;;;;4331612;33;20152;-83
2021/09/15 00:31:27;;;;;;;87.65;50.53;;;;;;;;;;4345330;33;20162;-83
2021/09/15 00:33:56;;;;;;;90.85;47.90;;;;;;;;;;4345074;33;20198;-83
2021/09/15 00:36:21;;;;;;;81.55;46.67;;;;;;;;;;4331430;33;20160;-83
2021/09/15 00:38:46;;;;;;;85.65;49.33;;;;;;;;;;4345596;33;20588;-83
2021/09/15 00:41:12;;;;;;;102.30;58.15;;;;;;;;;;4345285;33;20432;-83
2021/09/15 00:43:57;;;;;;;91.35;49.80;;;;;;;;;;4331862;33;20522;-83
2021/09/15 00:46:28;;;;;;;88.78;49.30;;;;;;;;;;4345431;33;20561;-83
2021/09/15 00:49:04;;;;;;;102.62;52.70;;;;;;;;;;4345011;33;20429;-83
2021/09/15 00:51:33;;;;;;;99.40;51.00;;;;;;;;;;4331700;33;20499;-84
2021/09/15 00:54:05;;;;;;;108.15;56.17;;;;;;;;;;4331448;33;20530;-84
2021/09/15 00:56:33;;;;;;;114.95;56.47;;;;;;;;;;4345122;33;20206;-84
2021/09/15 00:58:59;;;;;;;141.98;64.25;;;;;;;;;;4345273;33;20589;-84
2021/09/15 01:01:30;;;;;;;117.10;55.63;;;;;;;;;;4334140;33;20181;-83
2021/09/15 01:04:05;;;;;;;112.32;56.78;;;;;;;;;;4348050;33;20150;-84
2021/09/15 01:06:32;;;;;;;100.70;51.03;;;;;;;;;;4347846;33;20123;-83
2021/09/15 01:09:00;;;;;;;114.47;52.40;;;;;;;;;;4334016;33;20539;-83
2021/09/15 01:11:37;;;;;;;128.00;53.78;;;;;;;;;;4347855;33;20506;-83
2021/09/15 01:14:03;;;;;;;118.68;56.37;;;;;;;;;;4347353;33;20135;-83
2021/09/15 01:17:02;;;;;;;152.00;66.57;;;;;;;;;;4347743;33;20461;-84
2021/09/15 01:19:27;;;;;;;145.93;66.22;;;;;;;;;;4348256;33;20124;-83
2021/09/15 01:21:56;;;;;;;159.10;72.40;;;;;;;;;;4347416;33;20124;-84
2021/09/15 01:24:22;;;;;;;196.02;77.07;;;;;;;;;;4347172;33;20123;-83
2021/09/15 01:26:47;;;;;;;136.43;66.12;;;;;;;;;;4347128;33;20167;-84
2021/09/15 01:29:43;;;;;;;136.85;58.58;;;;;;;;;;4333574;33;20182;-83
2021/09/15 01:32:15;;;;;;;157.40;70.12;;;;;;;;;;4332164;33;20155;-83
2021/09/15 01:34:42;;;;;;;169.18;77.32;;;;;;;;;;4347136;33;20151;-83
2021/09/15 01:37:08;;;;;;;139.18;70.32;;;;;;;;;;4347270;33;20163;-83
2021/09/15 01:39:34;;;;;;;135.52;69.45;;;;;;;;;;4347945;33;20135;-83
2021/09/15 01:42:03;;;;;;;154.30;72.60;;;;;;;;;;4347000;33;20162;-83
2021/09/15 01:44:38;;;;;;;157.05;79.80;;;;;;;;;;4347387;33;20135;-83
2021/09/15 01:47:04;;;;;;;163.15;74.12;;;;;;;;;;4346847;33;20528;-83
2021/09/15 01:49:30;;;;;;;159.48;74.80;;;;;;;;;;4346843;33;20462;-84
2021/09/15 01:51:58;;;;;;;153.05;70.18;;;;;;;;;;4347351;33;20202;-83
2021/09/15 01:54:23;;;;;;;144.30;68.05;;;;;;;;;;4346738;33;20474;-84
2021/09/15 01:56:49;;;;;;;143.30;67.62;;;;;;;;;;4333410;33;20155;-82
2021/09/15 01:59:14;;;;;;;152.95;71.15;;;;;;;;;;4347093;33;20223;-84
2021/09/15 02:01:42;;;;;;;166.12;74.53;;;;;;;;;;4346924;33;20158;-83
2021/09/15 02:04:28;;;;;;;;;;;;;;;;;;;;;
2021/09/15 02:06:57;;;;;;;145.55;65.55;;;;;;;;;;4346776;33;20594;-83
2021/09/15 02:09:27;;;;;;;171.95;81.05;;;;;;;;;;4347360;33;20525;-83
2021/09/15 02:11:53;;;;;;;171.45;80.35;;;;;;;;;;4347265;33;20174;-84
2021/09/15 02:14:21;;;;;;;146.87;67.68;;;;;;;;;;4347199;33;20136;-83
2021/09/15 02:16:46;;;;;;;152.35;71.93;;;;;;;;;;4333004;33;20193;-83
2021/09/15 02:19:14;;;;;;;152.45;73.65;;;;;;;;;;4347117;33;20143;-83
2021/09/15 02:21:40;;;;;;;183.62;79.57;;;;;;;;;;4333371;33;20458;-83
2021/09/15 02:24:15;;;;;;;173.73;83.10;;;;;;;;;;4333438;33;20189;-83
2021/09/15 02:26:41;;;;;;;154.77;70.07;;;;;;;;;;4347302;33;20173;-83
2021/09/15 02:29:06;;;;;;;175.93;81.85;;;;;;;;;;4346830;33;20175;-83
2021/09/15 02:31:31;;;;;;;163.87;74.40;;;;;;;;;;4332899;33;20163;-83
2021/09/15 02:34:00;;;;;;;185.25;81.03;;;;;;;;;;4332842;33;20648;-83
2021/09/15 02:36:28;;;;;;;179.15;78.85;;;;;;;;;;4332711;33;20163;-83
2021/09/15 02:38:59;;;;;;;275.45;86.82;;;;;;;;;;4346369;33;20189;-84
2021/09/15 02:41:25;;;;;;;514.00;84.97;;;;;;;;;;4347085;33;20158;-84
2021/09/15 02:43:50;;;;;;;381.23;82.95;;;;;;;;;;4346140;33;20140;-84
2021/09/15 02:46:15;;;;;;;263.52;73.03;;;;;;;;;;4346598;33;20163;-84
2021/09/15 02:48:41;;;;;;;193.30;73.55;;;;;;;;;;4346756;33;20194;-84
2021/09/15 02:51:08;;;;;;;361.67;80.38;;;;;;;;;;4346643;33;20191;-84
2021/09/15 02:53:36;;;;;;;249.00;72.72;;;;;;;;;;4345755;33;20152;-83
2021/09/15 02:56:01;;;;;;;405.42;82.20;;;;;;;;;;4346148;33;20190;-84
2021/09/15 02:58:27;;;;;;;480.10;85.22;;;;;;;;;;4345820;33;20143;-83
2021/09/15 03:00:52;;;;;;;538.85;83.97;;;;;;;;;;4346073;33;20206;-84
2021/09/15 03:03:18;;;;;;;404.05;82.25;;;;;;;;;;4346164;33;20565;-84
2021/09/15 03:05:43;;;;;;;210.55;75.05;;;;;;;;;;4345908;33;20144;-84
2021/09/15 03:08:08;;;;;;;445.70;84.50;;;;;;;;;;4345872;33;20140;-83
2021/09/15 03:10:34;;;;;;;301.10;84.05;;;;;;;;;;4345785;33;20139;-83
2021/09/15 03:12:59;;;;;;;134.12;64.00;;;;;;;;;;4346432;33;20247;-84
2021/09/15 03:15:25;;;;;;;266.55;75.43;;;;;;;;;;4345700;33;20166;-83
2021/09/15 03:17:50;;;;;;;223.98;74.12;;;;;;;;;;4345987;33;20499;-83
2021/09/15 03:20:16;;;;;;;276.42;85.38;;;;;;;;;;4347133;33;20147;-84
2021/09/15 03:22:41;;;;;;;289.33;81.82;;;;;;;;;;4348893;33;20166;-84
2021/09/15 03:25:08;;;;;;;419.62;88.40;;;;;;;;;;4348782;33;20589;-83
2021/09/15 03:27:33;;;;;;;261.52;74.90;;;;;;;;;;4347630;33;20472;-83
2021/09/15 03:29:58;;;;;;;303.27;89.55;;;;;;;;;;4346917;33;20139;-83
2021/09/15 03:32:24;;;;;;;230.30;86.45;;;;;;;;;;4332271;33;20197;-82
2021/09/15 03:34:49;;;;;;;149.87;70.90;;;;;;;;;;4345868;33;20194;-82
2021/09/15 03:37:14;;;;;;;184.50;80.72;;;;;;;;;;4345815;33;20623;-85
2021/09/15 03:39:40;;;;;;;176.93;76.50;;;;;;;;;;4345338;33;20140;-83
2021/09/15 03:42:05;;;;;;;154.68;73.40;;;;;;;;;;4345752;33;20474;-84
2021/09/15 03:44:32;;;;;;;157.45;76.37;;;;;;;;;;4345578;33;20238;-83
2021/09/15 03:46:57;;;;;;;222.82;89.87;;;;;;;;;;4346283;33;20183;-82
2021/09/15 03:49:23;;;;;;;218.50;70.93;;;;;;;;;;4331883;33;20221;-83
2021/09/15 03:51:49;;;;;;;261.85;75.95;;;;;;;;;;4345318;33;20140;-83
2021/09/15 03:54:14;;;;;;;327.95;81.63;;;;;;;;;;4345542;33;20191;-82
2021/09/15 03:56:40;;;;;;;279.23;71.25;;;;;;;;;;4345191;33;20558;-83
2021/09/15 03:59:07;;;;;;;294.30;80.22;;;;;;;;;;4331816;33;20187;-84
2021/09/15 04:01:33;;;;;;;480.00;77.78;;;;;;;;;;4344999;33;20167;-84
2021/09/15 04:03:58;;;;;;;266.73;76.90;;;;;;;;;;4345195;33;20136;-83
2021/09/15 04:06:23;;;;;;;271.77;83.37;;;;;;;;;;4345454;33;20143;-82
2021/09/15 04:08:48;;;;;;;241.40;77.03;;;;;;;;;;4345534;33;20135;-85
2021/09/15 04:11:14;;;;;;;344.92;87.82;;;;;;;;;;4331893;33;20171;-82
2021/09/15 04:13:42;;;;;;;248.07;85.10;;;;;;;;;;4345555;33;20158;-82
2021/09/15 04:16:07;;;;;;;139.50;71.62;;;;;;;;;;4345617;33;20236;-84
2021/09/15 04:18:33;;;;;;;161.27;81.12;;;;;;;;;;4345578;33;20140;-83
2021/09/15 04:20:58;;;;;;;141.98;74.35;;;;;;;;;;4345951;33;20216;-83
2021/09/15 04:23:31;;;;;;;143.57;77.35;;;;;;;;;;4345030;33;20203;-83
2021/09/15 04:31:26;;;;;;;128.38;71.22;;;;;;;;;;4345500;33;20234;-83
2021/09/15 04:33:52;;;;;;;145.70;74.12;;;;;;;;;;4345212;33;20139;-83
2021/09/15 04:36:23;;;;;;;142.13;73.37;;;;;;;;;;4334803;33;20608;-83
2021/09/15 04:38:48;;;;;;;174.57;77.07;;;;;;;;;;4348597;33;20198;-84
2021/09/15 04:41:14;;;;;;;175.98;78.90;;;;;;;;;;4348110;33;20132;-82
2021/09/15 04:43:40;;;;;;;121.40;67.30;;;;;;;;;;4348360;33;20139;-83
2021/09/15 04:46:05;;;;;;;124.60;67.75;;;;;;;;;;4334343;33;20209;-83
2021/09/15 04:48:30;;;;;;;108.50;60.63;;;;;;;;;;4348906;33;20178;-84
2021/09/15 04:50:55;;;;;;;228.55;71.00;;;;;;;;;;4335446;33;20179;-84
2021/09/15 04:53:21;;;;;;;226.85;77.03;;;;;;;;;;4319781;33;20476;-83
2021/09/15 04:55:46;;;;;;;211.40;62.53;;;;;;;;;;4345130;33;20199;-83
2021/09/15 04:58:12;;;;;;;220.10;76.95;;;;;;;;;;4347585;33;20147;-84
2021/09/15 05:00:37;;;;;;;377.52;85.22;;;;;;;;;;4347520;33;20167;-83
2021/09/15 05:03:02;;;;;;;303.23;72.93;;;;;;;;;;4348343;33;20147;-83
2021/09/15 05:05:27;;;;;;;224.48;67.32;;;;;;;;;;4347678;33;20143;-83
2021/09/15 05:07:53;;;;;;;277.58;62.60;;;;;;;;;;4347429;33;20135;-82
2021/09/15 05:10:25;;;;;;;178.23;63.67;;;;;;;;;;4334397;33;20171;-81
2021/09/15 05:12:54;;;;;;;166.65;76.57;;;;;;;;;;4347851;33;20144;-80
2021/09/15 05:15:19;;;;;;;117.53;60.05;;;;;;;;;;4347112;33;20178;-81
2021/09/15 05:17:45;;;;;;;115.10;65.82;;;;;;;;;;4334256;33;20166;-82
2021/09/15 05:20:11;;;;;;;179.75;79.82;;;;;;;;;;4347478;33;20140;-82
2021/09/15 05:22:36;;;;;;;141.20;70.55;;;;;;;;;;4347515;33;20473;-82
2021/09/15 05:25:02;;;;;;;162.12;77.97;;;;;;;;;;4347858;33;20512;-82
2021/09/15 05:27:27;;;;;;;141.35;72.93;;;;;;;;;;4347447;33;20182;-81
2021/09/15 05:29:52;;;;;;;125.72;68.82;;;;;;;;;;4347378;33;20132;-83
2021/09/15 05:32:17;;;;;;;109.45;60.08;;;;;;;;;;4347734;33;20191;-81
2021/09/15 05:34:43;;;;;;;141.98;71.80;;;;;;;;;;4347565;33;20461;-81
2021/09/15 05:37:08;;;;;;;146.48;71.47;;;;;;;;;;4333568;33;20524;-81
2021/09/15 05:39:35;;;;;;;204.38;86.70;;;;;;;;;;4347560;33;20216;-81
2021/09/15 05:42:04;;;;;;;175.45;78.50;;;;;;;;;;4347932;33;20619;-81
2021/09/15 05:44:29;;;;;;;213.82;88.15;;;;;;;;;;4347347;32;20164;-81
2021/09/15 05:46:55;;;;;;;142.73;67.37;;;;;;;;;;4347070;33;20135;-80
2021/09/15 05:49:20;;;;;;;228.32;90.30;;;;;;;;;;4347408;33;20158;-81
2021/09/15 05:51:46;;;;;;;166.00;72.55;;;;;;;;;;4347303;33;20534;-81
2021/09/15 05:54:11;;;;;;;170.02;75.90;;;;;;;;;;4346672;33;20218;-81
2021/09/15 05:56:38;;;;;;;192.18;79.18;;;;;;;;;;4346945;33;20182;-81
2021/09/15 05:59:03;;;;;;;215.75;83.80;;;;;;;;;;4346725;33;20198;-81
2021/09/15 06:01:28;;;;;;;189.62;79.07;;;;;;;;;;4347000;33;20144;-82
2021/09/15 06:03:53;;;;;;;186.80;80.80;;;;;;;;;;4347204;33;20263;-82
2021/09/15 06:06:22;;;;;;;174.57;70.43;;;;;;;;;;4347384;33;20162;-80
2021/09/15 06:08:47;;;;;;;190.73;78.10;;;;;;;;;;4347095;33;20258;-79
2021/09/15 06:11:12;;;;;;;226.62;84.50;;;;;;;;;;4347951;33;20136;-80
2021/09/15 06:13:40;;;;;;;237.57;88.50;;;;;;;;;;4346778;33;20191;-81
2021/09/15 06:16:06;;;;;;;179.27;78.82;;;;;;;;;;4334014;33;20171;-80
2021/09/15 06:18:33;;;;;;;204.43;81.72;;;;;;;;;;4333505;33;20187;-81
2021/09/15 06:20:58;;;;;;;212.15;82.90;;;;;;;;;;4347073;33;20193;-82
2021/09/15 06:23:23;;;;;;;187.73;77.93;;;;;;;;;;4347519;33;20151;-83
2021/09/15 06:25:49;;;;;;;143.43;65.00;;;;;;;;;;4349650;33;20190;-80
2021/09/15 06:28:14;;;;;;;166.88;72.65;;;;;;;;;;4336167;33;20230;-82
2021/09/15 06:30:41;;;;;;;170.98;68.78;;;;;;;;;;4335898;33;20164;-81
2021/09/15 06:33:10;;;;;;;181.82;75.65;;;;;;;;;;4349328;33;20202;-81
2021/09/15 06:35:35;;;;;;;271.30;89.35;;;;;;;;;;4335728;33;20185;-81
2021/09/15 06:38:07;;;;;;;198.85;78.43;;;;;;;;;;4336848;33;20160;-82
2021/09/15 06:40:32;;;;;;;221.00;83.00;;;;;;;;;;4349781;33;20166;-80
2021/09/15 06:42:58;;;;;;;186.40;77.05;;;;;;;;;;4349266;33;20198;-81
2021/09/15 06:45:25;;;;;;;185.73;77.15;;;;;;;;;;4349519;33;20151;-82
2021/09/15 06:47:51;;;;;;;184.57;75.00;;;;;;;;;;4346892;33;20156;-81
2021/09/15 06:50:16;;;;;;;183.07;72.37;;;;;;;;;;4347970;33;20496;-81
2021/09/15 06:52:41;;;;;;;213.75;79.75;;;;;;;;;;4347606;33;20143;-82
2021/09/15 06:55:07;;;;;;;195.07;72.32;;;;;;;;;;4346863;33;20198;-83
2021/09/15 06:57:32;;;;;;;192.18;76.28;;;;;;;;;;4333191;33;20436;-82
2021/09/15 06:59:58;;;;;;;190.88;77.80;;;;;;;;;;4333592;33;20190;-81
2021/09/15 07:02:24;;;;;;;208.35;79.65;;;;;;;;;;4346912;33;20162;-82
2021/09/15 07:04:49;;;;;;;192.02;75.80;;;;;;;;;;4347188;33;20143;-81
2021/09/15 07:07:15;;;;;;;202.87;80.60;;;;;;;;;;4346711;33;20206;-82
2021/09/15 07:09:40;;;;;;;180.90;74.53;;;;;;;;;;4346579;33;20136;-83
2021/09/15 07:12:06;;;;;;;184.55;79.07;;;;;;;;;;4346981;33;20201;-81
2021/09/15 07:14:31;;;;;;;173.07;73.07;;;;;;;;;;4332860;33;20218;-82
2021/09/15 07:16:57;;;;;;;155.82;72.55;;;;;;;;;;4346715;33;20613;-82
2021/09/15 07:19:25;;;;;;;122.53;61.30;;;;;;;;;;4346296;33;20136;-83
2021/09/15 07:21:50;;;;;;;155.37;69.95;;;;;;;;;;4347022;33;20178;-81
2021/09/15 07:24:19;;;;;;;132.57;61.97;;;;;;;;;;4346170;33;20433;-84
2021/09/15 07:26:44;;;;;;;118.15;58.05;;;;;;;;;;4346442;33;20331;-84
2021/09/15 07:29:09;;;;;;;98.87;51.08;;;;;;;;;;4346413;33;20140;-84
2021/09/15 07:31:38;;;;;;;96.20;54.28;;;;;;;;;;4346638;33;20140;-83
2021/09/15 07:34:04;;;;;;;75.10;43.63;;;;;;;;;;4346521;33;20541;-83
2021/09/15 07:36:36;;;;;;;69.70;42.28;;;;;;;;;;4345863;33;20159;-81
2021/09/15 07:39:02;;;;;;;61.00;37.55;;;;;;;;;;4346785;33;20173;-82
2021/09/15 07:41:36;;;;;;;56.60;37.85;;;;;;;;;;4347042;33;20175;-85
2021/09/15 07:44:01;;;;;;;52.47;34.22;;;;;;;;;;4346926;33;20138;-82
2021/09/15 07:46:27;;;;;;;43.80;30.30;;;;;;;;;;4332724;33;20657;-82
2021/09/15 07:49:04;;;;;;;35.92;25.85;;;;;;;;;;4345962;33;20515;-84
2021/09/15 07:51:32;;;;;;;38.58;26.60;;;;;;;;;;4346428;33;20139;-81
2021/09/15 07:53:59;;;;;;;36.40;26.20;;;;;;;;;;4345896;33;20158;-83
2021/09/15 07:56:24;;;;;;;34.60;25.15;;;;;;;;;;4345916;33;20144;-83
2021/09/15 07:58:50;;;;;;;33.22;24.33;;;;;;;;;;4346344;33;20143;-84
2021/09/15 08:01:15;;;;;;;30.88;23.27;;;;;;;;;;4331712;33;20589;-85
2021/09/15 08:03:40;;;;;;;26.75;20.48;;;;;;;;;;4345824;33;20223;-82
2021/09/15 08:06:06;;;;;;;29.00;22.62;;;;;;;;;;4345492;33;20286;-83
2021/09/15 08:08:31;;;;;;;26.58;19.60;;;;;;;;;;4346470;33;20162;-83
2021/09/15 08:10:57;;;;;;;24.48;18.35;;;;;;;;;;4348508;33;20257;-82
2021/09/15 08:13:24;;;;;;;22.90;17.98;;;;;;;;;;4348569;33;20136;-82
2021/09/15 08:15:50;;;;;;;23.98;18.25;;;;;;;;;;4348020;33;20173;-83
2021/09/15 08:18:16;;;;;;;18.33;15.07;;;;;;;;;;4334860;33;20168;-82
2021/09/15 08:20:47;;;;;;;16.58;12.75;;;;;;;;;;4348322;33;20186;-82
2021/09/15 08:23:17;;;;;;;14.25;12.20;;;;;;;;;;4334975;33;20158;-82
2021/09/15 08:25:43;;;;;;;14.90;12.82;;;;;;;;;;4348501;33;20144;-81
2021/09/15 08:28:08;;;;;;;16.98;11.52;;;;;;;;;;4334470;33;20163;-81
2021/09/15 08:30:33;;;;;;;13.93;10.48;;;;;;;;;;4348254;33;20204;-80
2021/09/15 08:33:01;;;;;;;15.70;10.82;;;;;;;;;;4347709;33;20162;-81
2021/09/15 08:35:26;;;;;;;15.65;11.02;;;;;;;;;;4348031;33;20171;-80
2021/09/15 08:37:52;;;;;;;12.82;10.32;;;;;;;;;;4348215;33;20477;-81
2021/09/15 08:40:17;;;;;;;12.05;10.32;;;;;;;;;;4348197;33;20600;-84
2021/09/15 08:42:45;;;;;;;12.10;10.23;;;;;;;;;;4347848;33;20576;-79
2021/09/15 08:45:12;;;;;;;13.43;10.77;;;;;;;;;;4347452;33;20202;-82
2021/09/15 08:47:42;;;;;;;13.00;9.82;;;;;;;;;;4347666;33;20174;-80
2021/09/15 08:50:09;;;;;;;12.93;8.82;;;;;;;;;;4348141;33;20167;-79
2021/09/15 08:52:37;;;;;;;10.90;8.95;;;;;;;;;;4348001;33;20147;-79
2021/09/15 08:55:03;;;;;;;9.43;8.15;;;;;;;;;;4347729;33;20182;-80
2021/09/15 08:57:28;;;;;;;10.27;8.98;;;;;;;;;;4347537;33;20144;-82
2021/09/15 09:00:00;;;;;;;13.80;9.30;;;;;;;;;;4347462;33;20131;-81
2021/09/15 09:02:26;;;;;;;11.55;9.02;;;;;;;;;;4348750;33;20135;-82
2021/09/15 09:04:58;;;;;;;13.27;8.55;;;;;;;;;;4347254;33;20178;-83
2021/09/15 09:07:24;;;;;;;8.98;6.87;;;;;;;;;;4347841;33;20173;-82
2021/09/15 09:09:50;;;;;;;8.50;5.80;;;;;;;;;;4347262;33;20257;-80
2021/09/15 09:12:21;;;;;;;9.95;5.50;;;;;;;;;;4347515;33;20139;-82
2021/09/15 09:14:46;;;;;;;10.90;6.00;;;;;;;;;;4347245;33;20178;-83
2021/09/15 09:17:24;;;;;;;10.93;5.55;;;;;;;;;;4347098;33;20151;-81
2021/09/15 09:19:53;;;;;;;7.62;4.85;;;;;;;;;;4346909;33;20131;-82
2021/09/15 09:22:18;;;;;;;6.45;4.50;;;;;;;;;;4347504;33;20202;-82
2021/09/15 09:24:54;;;;;;;12.02;6.50;;;;;;;;;;4346866;33;20461;-82
2021/09/15 09:27:28;;;;;;;5.93;4.72;;;;;;;;;;4347303;33;20127;-82
2021/09/15 09:29:53;;;;;;;11.10;4.65;;;;;;;;;;4348114;33;20139;-83
2021/09/15 09:32:18;;;;;;;8.88;4.82;;;;;;;;;;4333339;33;20167;-80
2021/09/15 09:34:48;;;;;;;10.10;5.30;;;;;;;;;;4347761;33;20193;-82
2021/09/15 09:37:18;;;;;;;7.10;3.92;;;;;;;;;;4347428;33;20144;-81
2021/09/15 09:39:48;;;;;;;7.07;3.17;;;;;;;;;;4347941;33;20131;-83
2021/09/15 09:42:22;;;;;;;5.57;2.97;;;;;;;;;;4347846;33;20202;-81
2021/09/15 09:44:48;;;;;;;5.87;2.90;;;;;;;;;;4346757;33;20220;-81
2021/09/15 09:47:17;;;;;;;5.30;1.73;;;;;;;;;;4346703;33;20542;-82
2021/09/15 09:50:01;;;;;;;3.72;2.08;;;;;;;;;;4347117;33;20177;-82
2021/09/15 09:52:26;;;;;;;7.50;2.30;;;;;;;;;;4347267;33;20206;-84
2021/09/15 09:54:58;;;;;;;6.20;2.50;;;;;;;;;;4346658;33;20593;-81
2021/09/15 09:57:24;;;;;;;7.03;2.90;;;;;;;;;;4346779;33;20151;-82
2021/09/15 09:59:50;;;;;;;7.00;3.53;;;;;;;;;;4333211;33;20175;-81
2021/09/15 10:02:15;;;;;;;9.18;3.10;;;;;;;;;;4347051;33;20143;-81
2021/09/15 10:04:41;;;;;;;8.05;3.00;;;;;;;;;;4332835;33;20175;-82
2021/09/15 10:07:06;;;;;;;5.03;1.95;;;;;;;;;;4347139;33;20155;-81
2021/09/15 10:09:32;;;;;;;9.45;2.67;;;;;;;;;;4346459;33;20218;-83
2021/09/15 10:11:57;;;;;;;9.15;3.10;;;;;;;;;;4347335;33;20585;-82
2021/09/15 10:14:25;;;;;;;5.70;2.50;;;;;;;;;;4346312;33;20451;-81
2021/09/15 10:17:00;;;;;;;7.57;2.30;;;;;;;;;;4346623;33;20175;-81
2021/09/15 10:19:31;;;;;;;3.92;2.03;;;;;;;;;;4346513;33;20135;-83
2021/09/15 10:21:58;;;;;;;3.50;1.73;;;;;;;;;;4348049;33;20203;-82
2021/09/15 10:24:43;;;;;;;5.50;1.77;;;;;;;;;;4347753;33;20139;-83
2021/09/15 10:27:08;;;;;;;4.43;1.98;;;;;;;;;;4334184;33;20163;-82
2021/09/15 10:29:36;;;;;;;5.33;1.60;;;;;;;;;;4347323;33;20135;-82
2021/09/15 10:32:02;;;;;;;4.87;1.80;;;;;;;;;;4347004;33;20574;-81
2021/09/15 10:34:39;;;;;;;5.95;1.90;;;;;;;;;;4333545;33;20221;-79
2021/09/15 10:37:24;;;;;;;4.40;1.60;;;;;;;;;;4333051;33;20193;-83
2021/09/15 10:39:53;;;;;;;3.45;1.60;;;;;;;;;;4345823;33;20197;-82
2021/09/15 10:45:13;;;;;;;7.55;2.12;;;;;;;;;;4343504;33;20174;-81
2021/09/15 10:47:46;;;;;;;5.93;2.03;;;;;;;;;;4345848;33;20147;-82
2021/09/15 10:50:33;;;;;;;4.40;1.98;;;;;;;;;;4345647;33;20441;-82
2021/09/15 10:53:01;;;;;;;6.75;2.00;;;;;;;;;;4346258;33;20244;-82
2021/09/15 10:55:26;;;;;;;5.05;1.92;;;;;;;;;;4331935;33;20174;-82
2021/09/15 10:57:52;;;;;;;5.50;1.95;;;;;;;;;;4345694;33;20198;-82
2021/09/15 11:00:17;;;;;;;5.50;2.00;;;;;;;;;;4346124;33;20171;-82
2021/09/15 11:02:43;;;;;;;5.65;2.00;;;;;;;;;;4332278;33;20588;-80
2021/09/15 11:05:27;;;;;;;5.45;2.40;;;;;;;;;;4345645;33;20151;-82
2021/09/15 11:07:57;;;;;;;6.50;2.25;;;;;;;;;;4345998;33;20234;-81
2021/09/15 11:10:34;;;;;;;8.48;2.30;;;;;;;;;;4346662;33;20197;-83
2021/09/15 11:13:16;;;;;;;5.03;2.10;;;;;;;;;;4345687;33;20150;-82
2021/09/15 11:15:48;;;;;;;5.85;2.12;;;;;;;;;;4345451;33;20202;-82
2021/09/15 11:18:23;;;;;;;8.55;2.20;;;;;;;;;;4345426;33;20485;-80
2021/09/15 11:20:55;;;;;;;6.70;2.72;;;;;;;;;;4345766;33;20194;-80
2021/09/15 11:23:23;;;;;;;5.65;2.40;;;;;;;;;;4342267;33;20553;-83
2021/09/15 11:25:49;;;;;;;7.47;2.25;;;;;;;;;;4329496;33;20183;-82
2021/09/15 11:28:23;;;;;;;5.40;2.25;;;;;;;;;;4330794;33;20171;-83
2021/09/15 11:30:51;;;;;;;11.55;2.60;;;;;;;;;;4331297;33;20218;-81
2021/09/15 11:33:23;;;;;;;7.97;2.50;;;;;;;;;;4330889;33;20155;-83
2021/09/15 11:35:49;;;;;;;7.60;2.65;;;;;;;;;;4329551;33;20517;-83
2021/09/15 11:38:22;;;;;;;8.27;2.37;;;;;;;;;;4343829;33;20171;-81
2021/09/15 11:40:51;;;;;;;11.15;2.80;;;;;;;;;;4345628;33;20167;-81
2021/09/15 11:43:19;;;;;;;7.40;2.30;;;;;;;;;;4344859;33;20138;-81
2021/09/15 11:45:46;;;;;;;6.55;2.42;;;;;;;;;;4345913;33;20642;-81
2021/09/15 11:48:12;;;;;;;3.65;2.22;;;;;;;;;;4346241;33;20502;-82
2021/09/15 11:50:37;;;;;;;4.37;2.30;;;;;;;;;;4345513;33;20274;-82
2021/09/15 11:53:09;;;;;;;4.55;2.30;;;;;;;;;;4345499;33;20139;-81
2021/09/15 11:55:41;;;;;;;6.03;2.70;;;;;;;;;;4345515;33;20243;-82
2021/09/15 11:58:06;;;;;;;6.15;2.42;;;;;;;;;;4345542;33;20136;-81
2021/09/15 12:00:35;;;;;;;5.97;2.53;;;;;;;;;;4345009;33;20158;-82
2021/09/15 12:03:02;;;;;;;6.80;2.50;;;;;;;;;;4345476;33;20600;-80
2021/09/15 12:05:28;;;;;;;7.62;2.47;;;;;;;;;;4345481;33;20175;-82
2021/09/15 12:07:53;;;;;;;12.23;3.10;;;;;;;;;;4345735;33;20159;-82
2021/09/15 12:10:19;;;;;;;4.65;2.55;;;;;;;;;;4345230;33;20162;-82
2021/09/15 12:12:44;;;;;;;8.05;2.90;;;;;;;;;;4331512;33;20274;-81
2021/09/15 12:15:10;;;;;;;9.35;3.45;;;;;;;;;;4344813;33;20208;-81
2021/09/15 12:17:36;;;;;;;10.00;3.70;;;;;;;;;;4344891;33;20530;-82
2021/09/15 12:20:11;;;;;;;7.70;3.75;;;;;;;;;;4331341;33;20236;-82
2021/09/15 12:22:36;;;;;;;8.50;4.25;;;;;;;;;;4345297;33;20142;-81
2021/09/15 12:25:17;;;;;;;6.32;3.92;;;;;;;;;;4345538;33;20178;-82
2021/09/15 12:27:43;;;;;;;5.28;3.90;;;;;;;;;;4332039;33;20640;-81
2021/09/15 12:30:10;;;;;;;6.85;4.10;;;;;;;;;;4345025;33;20151;-82
2021/09/15 12:32:39;;;;;;;7.22;4.18;;;;;;;;;;4345304;33;20226;-82
2021/09/15 12:35:23;;;;;;;7.40;3.40;;;;;;;;;;4345050;33;20170;-82
2021/09/15 12:37:48;;;;;;;5.12;3.42;;;;;;;;;;4345025;33;20183;-82
2021/09/15 12:40:24;;;;;;;7.15;4.80;;;;;;;;;;4344971;33;20169;-81
2021/09/15 12:43:00;;;;;;;7.15;5.53;;;;;;;;;;4345249;33;20496;-81
2021/09/15 12:45:25;;;;;;;7.57;6.37;;;;;;;;;;4331550;33;20593;-82
2021/09/15 12:47:50;;;;;;;10.07;7.20;;;;;;;;;;4331722;33;20190;-82
2021/09/15 12:50:23;;;;;;;8.23;5.90;;;;;;;;;;4344861;33;20151;-81
2021/09/15 12:52:57;;;;;;;10.02;7.15;;;;;;;;;;4344682;33;20635;-81
2021/09/15 12:55:23;;;;;;;9.38;6.85;;;;;;;;;;4345782;33;20600;-81
2021/09/15 12:57:58;;;;;;;11.70;8.23;;;;;;;;;;4334355;33;20237;-81
2021/09/15 13:00:24;;;;;;;11.45;8.48;;;;;;;;;;4347300;33;20198;-82
2021/09/15 13:03:04;;;;;;;14.32;9.18;;;;;;;;;;4347431;33;20426;-82
2021/09/15 13:05:33;;;;;;;11.45;9.30;;;;;;;;;;4334086;33;20190;-81
2021/09/15 13:07:59;;;;;;;12.32;9.55;;;;;;;;;;4347236;33;20217;-82
2021/09/15 13:10:24;;;;;;;11.75;9.88;;;;;;;;;;4347631;33;20144;-81
2021/09/15 13:12:50;;;;;;;13.38;10.13;;;;;;;;;;4347407;33;20162;-81
2021/09/15 13:15:15;;;;;;;12.10;9.57;;;;;;;;;;4347466;33;20561;-82
2021/09/15 13:17:40;;;;;;;15.85;12.43;;;;;;;;;;4347362;33;20162;-82
2021/09/15 13:20:09;;;;;;;19.17;14.73;;;;;;;;;;4348289;33;20135;-82
2021/09/15 13:22:34;;;;;;;15.40;11.10;;;;;;;;;;4347202;33;20202;-79
2021/09/15 13:24:59;;;;;;;11.05;8.35;;;;;;;;;;4333839;33;20171;-79
2021/09/15 13:27:24;;;;;;;12.95;7.40;;;;;;;;;;4347030;33;20159;-82
2021/09/15 13:29:50;;;;;;;15.90;8.05;;;;;;;;;;4347415;33;20131;-82
2021/09/15 13:32:15;;;;;;;9.02;6.68;;;;;;;;;;4347266;33;20177;-82
2021/09/15 13:34:41;;;;;;;11.68;5.40;;;;;;;;;;4346822;33;20214;-81
2021/09/15 13:37:06;;;;;;;9.20;4.47;;;;;;;;;;4347798;33;20484;-81
2021/09/15 13:39:32;;;;;;;11.85;3.67;;;;;;;;;;4347343;33;20446;-80
2021/09/15 13:41:58;;;;;;;7.03;3.30;;;;;;;;;;4346600;33;20174;-81
2021/09/15 13:44:23;;;;;;;13.02;2.78;;;;;;;;;;4347601;33;20167;-81
2021/09/15 13:46:48;;;;;;;12.52;2.78;;;;;;;;;;4347038;33;20144;-81
2021/09/15 13:49:15;;;;;;;8.77;2.20;;;;;;;;;;4347170;33;20131;-82
2021/09/15 13:51:42;;;;;;;10.20;2.70;;;;;;;;;;4346774;33;20165;-81
2021/09/15 13:54:07;;;;;;;8.93;2.15;;;;;;;;;;4346477;33;20213;-81
2021/09/15 13:56:32;;;;;;;10.77;1.98;;;;;;;;;;4333939;33;20147;-80
2021/09/15 13:58:58;;;;;;;7.72;1.92;;;;;;;;;;4333524;33;20167;-81
2021/09/15 14:01:26;;;;;;;5.55;1.65;;;;;;;;;;4346360;33;20226;-83
2021/09/15 14:03:51;;;;;;;9.05;1.92;;;;;;;;;;4347790;33;20171;-81
2021/09/15 14:06:16;;;;;;;7.37;1.77;;;;;;;;;;4346538;33;20194;-83
2021/09/15 14:08:42;;;;;;;6.05;1.40;;;;;;;;;;4347119;33;20143;-80
2021/09/15 14:11:08;;;;;;;8.43;2.10;;;;;;;;;;4346530;33;20171;-81
2021/09/15 14:13:33;;;;;;;7.57;1.80;;;;;;;;;;4346519;33;20136;-81
2021/09/15 14:15:59;;;;;;;9.93;2.03;;;;;;;;;;4346723;33;20239;-83
2021/09/15 14:18:24;;;;;;;8.82;2.00;;;;;;;;;;4333996;33;20267;-82
2021/09/15 14:20:50;;;;;;;7.70;1.67;;;;;;;;;;4346817;33;20170;-81
2021/09/15 14:23:15;;;;;;;7.35;1.70;;;;;;;;;;4346866;33;20160;-80
2021/09/15 14:25:40;;;;;;;8.30;1.70;;;;;;;;;;4346064;33;20198;-79
2021/09/15 14:28:06;;;;;;;8.48;1.80;;;;;;;;;;4346736;33;20584;-77
2021/09/15 14:30:31;;;;;;;5.45;1.37;;;;;;;;;;4333111;33;20163;-81
2021/09/15 14:32:56;;;;;;;5.55;1.70;;;;;;;;;;4332708;33;20238;-83